Current | Forecast
Updated: 3:00 AM +07 on March 31, 2017
Observed at Tolmachevo, Russia
Temperature 32°F
Windchill 18°F
Humidity 75%
Dew Point 25°F
Wind SW at 29 mph
Wind Gust 42 mph
Pressure 29.77 in (Steady)
Conditions Overcast
Visibility 3.7 miles
UV 0 out of 16
Clouds Overcast (OVC) : 3000 ft
Yesterday's Maximum 41°F
Yesterday's Minimum 34°F approx.
Yesterday's Heating Degree Days 28 approx.
Sunrise6:03 AM +06
Sunset7:04 PM +06
Moon Rise7:56 AM +06
Moon Set11:20 PM +06
Moon PhaseMoon Phase
Waxing Crescent
Raw METARMETAR UNNT 302000Z 23013G19MPS 6000 OVC030CB 00/M04 Q1008 R25/290150 R16/590140 NOSIG RMK QFE746/0995


Monday
. High: 55° F.
Tuesday
. High: 64° F.
Wednesday
. High: 66° F.
Thursday
. High: 60° F.
Friday
. High: 66° F.
Saturday
. High: 69° F.
Sunday
. High: 75° F.
Monday
. High: 69° F.

Units: English | Metric

Find the Weather for any City, State or Zipcode, or Country:

U.S. State List | Severe Weather | Tropical Storms | Ski Conditions
United States | Canada | Central America | South America | Asia | Europe | Australia | Africa | Islands

Weather Underground

© Copyright 2017
The Weather Company, LLC